sensor_id;sensor_type;location;lat;lon;timestamp;pressure;altitude;pressure_sealevel;temperature;humidity
72262;BME280;60173;52.112;8.648;2022-11-20T00:01:24;100350.25;;;-5.63;92.45
72262;BME280;60173;52.112;8.648;2022-11-20T00:03:52;100354.06;;;-5.37;92.04
72262;BME280;60173;52.112;8.648;2022-11-20T00:06:19;100364.69;;;-5.24;90.87
72262;BME280;60173;52.112;8.648;2022-11-20T00:08:47;100357.69;;;-5.38;91.03
72262;BME280;60173;52.112;8.648;2022-11-20T00:11:16;100354.59;;;-5.49;91.03
72262;BME280;60173;52.112;8.648;2022-11-20T00:13:44;100352.72;;;-5.55;91.32
72262;BME280;60173;52.112;8.648;2022-11-20T00:16:13;100343.38;;;-5.51;91.42
72262;BME280;60173;52.112;8.648;2022-11-20T00:18:40;100342.16;;;-5.55;91.66
72262;BME280;60173;52.112;8.648;2022-11-20T00:21:10;100335.19;;;-5.62;91.29
72262;BME280;60173;52.112;8.648;2022-11-20T00:23:37;100343.31;;;-5.64;91.40
72262;BME280;60173;52.112;8.648;2022-11-20T00:26:06;100338.41;;;-5.67;91.50
72262;BME280;60173;52.112;8.648;2022-11-20T00:28:33;100333.22;;;-5.47;91.46
72262;BME280;60173;52.112;8.648;2022-11-20T00:31:16;100333.84;;;-5.45;90.62
72262;BME280;60173;52.112;8.648;2022-11-20T00:33:43;100331.34;;;-5.53;90.33
72262;BME280;60173;52.112;8.648;2022-11-20T00:36:12;100335.59;;;-5.59;90.54
72262;BME280;60173;52.112;8.648;2022-11-20T00:38:39;100331.50;;;-5.61;90.88
72262;BME280;60173;52.112;8.648;2022-11-20T00:41:08;100321.69;;;-5.74;90.89
72262;BME280;60173;52.112;8.648;2022-11-20T00:43:34;100323.09;;;-5.78;91.41
72262;BME280;60173;52.112;8.648;2022-11-20T00:46:03;100331.41;;;-5.81;91.51
72262;BME280;60173;52.112;8.648;2022-11-20T00:48:30;100323.25;;;-5.86;91.93
72262;BME280;60173;52.112;8.648;2022-11-20T00:50:56;100317.94;;;-5.86;92.22
72262;BME280;60173;52.112;8.648;2022-11-20T00:53:23;100328.91;;;-5.89;92.42
72262;BME280;60173;52.112;8.648;2022-11-20T00:55:54;100323.84;;;-5.84;92.61
72262;BME280;60173;52.112;8.648;2022-11-20T00:58:21;100327.50;;;-5.85;92.62
72262;BME280;60173;52.112;8.648;2022-11-20T01:00:48;100324.09;;;-5.79;92.62
72262;BME280;60173;52.112;8.648;2022-11-20T01:03:18;100320.84;;;-5.81;92.49
72262;BME280;60173;52.112;8.648;2022-11-20T01:05:52;100323.66;;;-5.83;92.34
72262;BME280;60173;52.112;8.648;2022-11-20T01:08:18;100326.88;;;-5.87;92.05
72262;BME280;60173;52.112;8.648;2022-11-20T01:10:44;100317.53;;;-5.90;92.09
72262;BME280;60173;52.112;8.648;2022-11-20T01:13:11;100323.16;;;-5.65;92.27
72262;BME280;60173;52.112;8.648;2022-11-20T01:15:37;100319.66;;;-5.72;91.87
72262;BME280;60173;52.112;8.648;2022-11-20T01:18:03;100319.22;;;-5.76;91.65
72262;BME280;60173;52.112;8.648;2022-11-20T01:20:34;100322.88;;;-5.77;91.58
72262;BME280;60173;52.112;8.648;2022-11-20T01:23:01;100324.09;;;-5.79;91.28
72262;BME280;60173;52.112;8.648;2022-11-20T01:25:28;100319.19;;;-5.82;91.19
72262;BME280;60173;52.112;8.648;2022-11-20T01:27:55;100321.41;;;-5.86;91.20
72262;BME280;60173;52.112;8.648;2022-11-20T01:30:21;100324.88;;;-5.85;91.18
72262;BME280;60173;52.112;8.648;2022-11-20T01:32:48;100315.53;;;-5.81;91.58
72262;BME280;60173;52.112;8.648;2022-11-20T01:35:14;100311.06;;;-5.81;91.57
72262;BME280;60173;52.112;8.648;2022-11-20T01:37:40;100311.72;;;-5.72;91.48
72262;BME280;60173;52.112;8.648;2022-11-20T01:40:07;100313.31;;;-5.78;91.09
72262;BME280;60173;52.112;8.648;2022-11-20T01:42:34;100304.34;;;-5.83;91.42
72262;BME280;60173;52.112;8.648;2022-11-20T01:45:00;100309.00;;;-5.85;91.41
72262;BME280;60173;52.112;8.648;2022-11-20T01:47:34;100312.84;;;-5.95;91.46
72262;BME280;60173;52.112;8.648;2022-11-20T01:50:37;100306.09;;;-5.97;91.81
72262;BME280;60173;52.112;8.648;2022-11-20T01:53:08;100309.16;;;-5.94;91.74
72262;BME280;60173;52.112;8.648;2022-11-20T01:55:40;100312.16;;;-6.03;91.62
72262;BME280;60173;52.112;8.648;2022-11-20T01:58:08;100316.53;;;-6.17;91.78
72262;BME280;60173;52.112;8.648;2022-11-20T02:00:34;100308.59;;;-6.17;92.22
72262;BME280;60173;52.112;8.648;2022-11-20T02:03:08;100303.94;;;-6.15;92.20
72262;BME280;60173;52.112;8.648;2022-11-20T02:08:25;100290.63;;;-6.00;91.89
72262;BME280;60173;52.112;8.648;2022-11-20T02:10:52;100301.38;;;-6.02;91.35
72262;BME280;60173;52.112;8.648;2022-11-20T02:13:18;100296.72;;;-6.00;91.00
72262;BME280;60173;52.112;8.648;2022-11-20T02:15:46;100291.81;;;-6.03;91.40
72262;BME280;60173;52.112;8.648;2022-11-20T02:18:16;100289.19;;;-6.03;91.28
72262;BME280;60173;52.112;8.648;2022-11-20T02:20:46;100285.19;;;-5.85;91.13
72262;BME280;60173;52.112;8.648;2022-11-20T02:25:43;100284.28;;;-6.06;90.64
72262;BME280;60173;52.112;8.648;2022-11-20T02:28:11;100284.13;;;-5.98;90.55
72262;BME280;60173;52.112;8.648;2022-11-20T02:30:38;100288.34;;;-6.10;90.26
72262;BME280;60173;52.112;8.648;2022-11-20T02:33:04;100284.19;;;-6.19;90.53
72262;BME280;60173;52.112;8.648;2022-11-20T02:38:01;100278.28;;;-6.21;90.98
72262;BME280;60173;52.112;8.648;2022-11-20T02:40:29;100270.22;;;-6.13;90.67
72262;BME280;60173;52.112;8.648;2022-11-20T02:42:56;100267.38;;;-6.11;90.43
72262;BME280;60173;52.112;8.648;2022-11-20T02:45:24;100264.16;;;-6.07;91.11
72262;BME280;60173;52.112;8.648;2022-11-20T02:47:51;100262.75;;;-6.03;92.16
72262;BME280;60173;52.112;8.648;2022-11-20T02:50:18;100266.19;;;-6.02;92.78
72262;BME280;60173;52.112;8.648;2022-11-20T02:52:44;100262.59;;;-5.95;92.63
72262;BME280;60173;52.112;8.648;2022-11-20T02:55:11;100258.91;;;-6.00;92.10
72262;BME280;60173;52.112;8.648;2022-11-20T02:57:37;100258.09;;;-6.01;92.02
72262;BME280;60173;52.112;8.648;2022-11-20T03:00:05;100259.28;;;-6.03;91.87
72262;BME280;60173;52.112;8.648;2022-11-20T03:02:32;100256.59;;;-6.10;91.71
72262;BME280;60173;52.112;8.648;2022-11-20T03:04:59;100263.16;;;-5.99;91.60
72262;BME280;60173;52.112;8.648;2022-11-20T03:07:25;100247.03;;;-6.11;90.96
72262;BME280;60173;52.112;8.648;2022-11-20T03:09:51;100259.69;;;-6.00;90.47
72262;BME280;60173;52.112;8.648;2022-11-20T03:12:18;100249.47;;;-6.16;90.02
72262;BME280;60173;52.112;8.648;2022-11-20T03:14:44;100247.53;;;-6.29;90.25
72262;BME280;60173;52.112;8.648;2022-11-20T03:17:18;100237.31;;;-6.39;90.22
72262;BME280;60173;52.112;8.648;2022-11-20T03:19:44;100240.75;;;-6.38;90.47
72262;BME280;60173;52.112;8.648;2022-11-20T03:22:10;100243.97;;;-6.43;90.59
72262;BME280;60173;52.112;8.648;2022-11-20T03:24:37;100241.56;;;-6.38;90.96
72262;BME280;60173;52.112;8.648;2022-11-20T03:27:03;100246.16;;;-6.25;90.55
72262;BME280;60173;52.112;8.648;2022-11-20T03:29:29;100245.25;;;-6.32;90.38
72262;BME280;60173;52.112;8.648;2022-11-20T03:31:56;100241.19;;;-6.34;90.58
72262;BME280;60173;52.112;8.648;2022-11-20T03:34:22;100236.38;;;-6.24;90.63
72262;BME280;60173;52.112;8.648;2022-11-20T03:36:48;100233.19;;;-6.13;90.65
72262;BME280;60173;52.112;8.648;2022-11-20T03:39:15;100230.31;;;-6.18;90.58
72262;BME280;60173;52.112;8.648;2022-11-20T03:41:41;100235.75;;;-6.26;90.68
72262;BME280;60173;52.112;8.648;2022-11-20T03:44:09;100235.50;;;-6.31;90.65
72262;BME280;60173;52.112;8.648;2022-11-20T03:46:36;100231.88;;;-6.30;90.65
72262;BME280;60173;52.112;8.648;2022-11-20T03:49:03;100226.00;;;-6.26;90.82
72262;BME280;60173;52.112;8.648;2022-11-20T03:51:31;100224.94;;;-6.31;90.41
72262;BME280;60173;52.112;8.648;2022-11-20T03:54:00;100222.16;;;-6.23;90.09
72262;BME280;60173;52.112;8.648;2022-11-20T03:56:29;100215.44;;;-6.19;90.00
72262;BME280;60173;52.112;8.648;2022-11-20T03:58:56;100222.97;;;-6.23;90.53
72262;BME280;60173;52.112;8.648;2022-11-20T04:01:25;100221.91;;;-6.28;90.63
72262;BME280;60173;52.112;8.648;2022-11-20T04:03:53;100226.66;;;-6.45;90.31
72262;BME280;60173;52.112;8.648;2022-11-20T04:06:28;100225.41;;;-6.49;90.86
72262;BME280;60173;52.112;8.648;2022-11-20T04:08:56;100225.13;;;-6.61;90.60
72262;BME280;60173;52.112;8.648;2022-11-20T04:11:25;100229.78;;;-6.63;90.83
72262;BME280;60173;52.112;8.648;2022-11-20T04:13:55;100229.75;;;-6.70;91.04
72262;BME280;60173;52.112;8.648;2022-11-20T04:16:23;100235.53;;;-6.81;91.33
72262;BME280;60173;52.112;8.648;2022-11-20T04:18:54;100237.47;;;-6.90;91.31
72262;BME280;60173;52.112;8.648;2022-11-20T04:21:21;100233.09;;;-7.04;91.32
72262;BME280;60173;52.112;8.648;2022-11-20T04:23:48;100237.34;;;-7.03;91.69
72262;BME280;60173;52.112;8.648;2022-11-20T04:26:14;100240.13;;;-6.90;91.76
72262;BME280;60173;52.112;8.648;2022-11-20T04:28:41;100238.25;;;-6.96;91.60
72262;BME280;60173;52.112;8.648;2022-11-20T04:31:13;100233.53;;;-7.00;91.26
72262;BME280;60173;52.112;8.648;2022-11-20T04:33:40;100235.25;;;-7.14;91.15
72262;BME280;60173;52.112;8.648;2022-11-20T04:36:11;100224.78;;;-7.22;91.37
72262;BME280;60173;52.112;8.648;2022-11-20T04:38:38;100233.16;;;-7.19;91.72
72262;BME280;60173;52.112;8.648;2022-11-20T04:41:06;100226.34;;;-7.07;91.48
72262;BME280;60173;52.112;8.648;2022-11-20T04:43:33;100234.47;;;-7.08;91.33
72262;BME280;60173;52.112;8.648;2022-11-20T04:46:00;100228.31;;;-7.15;91.00
72262;BME280;60173;52.112;8.648;2022-11-20T04:48:28;100226.31;;;-7.13;90.96
72262;BME280;60173;52.112;8.648;2022-11-20T04:50:55;100220.50;;;-7.23;90.96
72262;BME280;60173;52.112;8.648;2022-11-20T04:53:22;100223.59;;;-7.20;91.16
72262;BME280;60173;52.112;8.648;2022-11-20T04:55:48;100226.69;;;-7.16;91.08
72262;BME280;60173;52.112;8.648;2022-11-20T04:58:16;100215.75;;;-7.13;90.99
72262;BME280;60173;52.112;8.648;2022-11-20T05:00:42;100216.00;;;-7.08;90.79
72262;BME280;60173;52.112;8.648;2022-11-20T05:03:08;100214.88;;;-6.99;90.86
72262;BME280;60173;52.112;8.648;2022-11-20T05:05:35;100217.06;;;-7.02;90.53
72262;BME280;60173;52.112;8.648;2022-11-20T05:08:01;100213.97;;;-7.06;90.22
72262;BME280;60173;52.112;8.648;2022-11-20T05:10:28;100222.25;;;-7.09;90.22
72262;BME280;60173;52.112;8.648;2022-11-20T05:12:54;100220.22;;;-7.14;90.37
72262;BME280;60173;52.112;8.648;2022-11-20T05:15:21;100228.63;;;-7.03;90.17
72262;BME280;60173;52.112;8.648;2022-11-20T05:17:51;100229.25;;;-7.01;90.05
72262;BME280;60173;52.112;8.648;2022-11-20T05:20:18;100219.72;;;-7.02;90.20
72262;BME280;60173;52.112;8.648;2022-11-20T05:22:45;100219.41;;;-7.14;89.86
72262;BME280;60173;52.112;8.648;2022-11-20T05:25:12;100230.19;;;-7.31;90.41
72262;BME280;60173;52.112;8.648;2022-11-20T05:27:38;100225.66;;;-7.37;90.86
72262;BME280;60173;52.112;8.648;2022-11-20T05:30:05;100225.13;;;-7.11;91.31
72262;BME280;60173;52.112;8.648;2022-11-20T05:32:31;100229.09;;;-7.00;91.10
72262;BME280;60173;52.112;8.648;2022-11-20T05:34:58;100224.50;;;-6.91;90.93
72262;BME280;60173;52.112;8.648;2022-11-20T05:37:24;100222.66;;;-6.91;90.95
72262;BME280;60173;52.112;8.648;2022-11-20T05:39:50;100224.09;;;-6.88;90.63
72262;BME280;60173;52.112;8.648;2022-11-20T05:42:17;100224.03;;;-6.95;90.60
72262;BME280;60173;52.112;8.648;2022-11-20T05:44:43;100220.84;;;-6.90;90.64
72262;BME280;60173;52.112;8.648;2022-11-20T05:47:09;100217.13;;;-6.96;90.40
72262;BME280;60173;52.112;8.648;2022-11-20T05:49:36;100217.88;;;-7.02;90.50
72262;BME280;60173;52.112;8.648;2022-11-20T05:52:02;100212.97;;;-7.05;90.61
72262;BME280;60173;52.112;8.648;2022-11-20T05:54:29;100211.31;;;-7.06;90.98
72262;BME280;60173;52.112;8.648;2022-11-20T05:56:55;100206.44;;;-7.09;91.14
72262;BME280;60173;52.112;8.648;2022-11-20T05:59:21;100204.84;;;-7.03;91.25
72262;BME280;60173;52.112;8.648;2022-11-20T06:01:48;100203.66;;;-7.01;91.30
72262;BME280;60173;52.112;8.648;2022-11-20T06:04:14;100201.66;;;-6.99;91.25
72262;BME280;60173;52.112;8.648;2022-11-20T06:06:41;100192.34;;;-6.95;91.18
72262;BME280;60173;52.112;8.648;2022-11-20T06:09:07;100192.56;;;-6.96;90.95
72262;BME280;60173;52.112;8.648;2022-11-20T06:11:33;100191.53;;;-6.95;90.83
72262;BME280;60173;52.112;8.648;2022-11-20T06:14:00;100196.00;;;-6.96;91.02
72262;BME280;60173;52.112;8.648;2022-11-20T06:16:26;100202.09;;;-6.95;91.30
72262;BME280;60173;52.112;8.648;2022-11-20T06:18:52;100205.31;;;-7.00;91.40
72262;BME280;60173;52.112;8.648;2022-11-20T06:21:20;100198.50;;;-7.09;91.61
72262;BME280;60173;52.112;8.648;2022-11-20T06:23:47;100203.03;;;-7.03;92.18
72262;BME280;60173;52.112;8.648;2022-11-20T06:26:19;100208.25;;;-6.88;92.25
72262;BME280;60173;52.112;8.648;2022-11-20T06:28:46;100204.66;;;-6.80;92.23
72262;BME280;60173;52.112;8.648;2022-11-20T06:31:15;100201.88;;;-6.72;92.04
72262;BME280;60173;52.112;8.648;2022-11-20T06:33:42;100188.53;;;-6.64;91.90
72262;BME280;60173;52.112;8.648;2022-11-20T06:36:11;100193.16;;;-6.73;91.82
72262;BME280;60173;52.112;8.648;2022-11-20T06:38:38;100192.50;;;-6.75;91.60
72262;BME280;60173;52.112;8.648;2022-11-20T06:41:06;100189.44;;;-6.78;91.43
72262;BME280;60173;52.112;8.648;2022-11-20T06:43:32;100199.50;;;-6.67;91.50
72262;BME280;60173;52.112;8.648;2022-11-20T06:45:59;100203.88;;;-6.74;91.03
72262;BME280;60173;52.112;8.648;2022-11-20T06:48:26;100205.84;;;-6.83;90.77
72262;BME280;60173;52.112;8.648;2022-11-20T06:50:53;100196.81;;;-6.95;90.84
72262;BME280;60173;52.112;8.648;2022-11-20T06:53:19;100196.75;;;-7.02;90.70
72262;BME280;60173;52.112;8.648;2022-11-20T06:55:46;100202.69;;;-7.00;91.06
72262;BME280;60173;52.112;8.648;2022-11-20T06:58:14;100205.31;;;-7.00;91.11
72262;BME280;60173;52.112;8.648;2022-11-20T07:00:41;100200.84;;;-6.99;91.22
72262;BME280;60173;52.112;8.648;2022-11-20T07:03:09;100204.19;;;-6.91;91.18
72262;BME280;60173;52.112;8.648;2022-11-20T07:05:36;100215.59;;;-6.84;90.79
72262;BME280;60173;52.112;8.648;2022-11-20T07:08:03;100210.69;;;-6.87;90.28
72262;BME280;60173;52.112;8.648;2022-11-20T07:10:31;100202.00;;;-6.80;90.30
72262;BME280;60173;52.112;8.648;2022-11-20T07:12:57;100209.16;;;-6.74;90.18
72262;BME280;60173;52.112;8.648;2022-11-20T07:15:24;100211.44;;;-6.71;90.29
72262;BME280;60173;52.112;8.648;2022-11-20T07:17:51;100214.19;;;-6.58;90.46
72262;BME280;60173;52.112;8.648;2022-11-20T07:20:17;100214.50;;;-6.40;90.05
72262;BME280;60173;52.112;8.648;2022-11-20T07:22:44;100208.69;;;-6.28;89.75
72262;BME280;60173;52.112;8.648;2022-11-20T07:25:10;100222.97;;;-6.23;89.34
72262;BME280;60173;52.112;8.648;2022-11-20T07:27:36;100218.34;;;-6.14;89.41
72262;BME280;60173;52.112;8.648;2022-11-20T07:30:03;100220.13;;;-6.21;89.11
72262;BME280;60173;52.112;8.648;2022-11-20T07:32:30;100217.25;;;-6.26;89.39
72262;BME280;60173;52.112;8.648;2022-11-20T07:34:56;100215.66;;;-6.21;89.60
72262;BME280;60173;52.112;8.648;2022-11-20T07:37:23;100207.47;;;-5.84;89.20
72262;BME280;60173;52.112;8.648;2022-11-20T07:39:49;100212.25;;;-5.66;89.00
72262;BME280;60173;52.112;8.648;2022-11-20T07:42:15;100212.66;;;-5.63;88.93
72262;BME280;60173;52.112;8.648;2022-11-20T07:44:42;100219.78;;;-5.57;88.46
72262;BME280;60173;52.112;8.648;2022-11-20T07:47:08;100225.53;;;-5.47;88.17
72262;BME280;60173;52.112;8.648;2022-11-20T07:49:34;100216.75;;;-5.47;87.64
72262;BME280;60173;52.112;8.648;2022-11-20T07:52:01;100218.19;;;-5.45;87.87
72262;BME280;60173;52.112;8.648;2022-11-20T07:54:30;100210.91;;;-5.36;87.66
72262;BME280;60173;52.112;8.648;2022-11-20T07:56:57;100207.84;;;-5.33;87.47
72262;BME280;60173;52.112;8.648;2022-11-20T07:59:23;100205.66;;;-5.16;87.17
72262;BME280;60173;52.112;8.648;2022-11-20T08:01:49;100201.38;;;-5.04;86.59
72262;BME280;60173;52.112;8.648;2022-11-20T08:04:16;100211.59;;;-4.94;86.40
72262;BME280;60173;52.112;8.648;2022-11-20T08:06:42;100204.06;;;-4.97;86.41
72262;BME280;60173;52.112;8.648;2022-11-20T08:09:08;100208.31;;;-4.89;86.30
72262;BME280;60173;52.112;8.648;2022-11-20T08:11:35;100200.78;;;-4.66;86.39
72262;BME280;60173;52.112;8.648;2022-11-20T08:14:01;100205.47;;;-4.41;86.09
72262;BME280;60173;52.112;8.648;2022-11-20T08:16:28;100202.16;;;-4.10;85.62
72262;BME280;60173;52.112;8.648;2022-11-20T08:18:54;100195.78;;;-3.96;84.57
72262;BME280;60173;52.112;8.648;2022-11-20T08:21:21;100193.31;;;-3.84;84.89
72262;BME280;60173;52.112;8.648;2022-11-20T08:23:47;100190.56;;;-3.64;84.73
72262;BME280;60173;52.112;8.648;2022-11-20T08:26:13;100192.28;;;-3.45;84.68
72262;BME280;60173;52.112;8.648;2022-11-20T08:28:40;100187.91;;;-3.26;84.52
72262;BME280;60173;52.112;8.648;2022-11-20T08:31:06;100188.78;;;-3.07;84.33
72262;BME280;60173;52.112;8.648;2022-11-20T08:33:32;100188.78;;;-3.07;84.13
72262;BME280;60173;52.112;8.648;2022-11-20T08:36:00;100201.47;;;-2.77;84.07
72262;BME280;60173;52.112;8.648;2022-11-20T08:38:27;100195.63;;;-2.86;84.13
72262;BME280;60173;52.112;8.648;2022-11-20T08:40:57;100209.59;;;-2.72;84.29
72262;BME280;60173;52.112;8.648;2022-11-20T08:43:23;100192.50;;;-2.58;84.35
72262;BME280;60173;52.112;8.648;2022-11-20T08:45:50;100191.00;;;-2.29;84.23
72262;BME280;60173;52.112;8.648;2022-11-20T08:48:16;100192.94;;;-2.17;83.85
72262;BME280;60173;52.112;8.648;2022-11-20T08:50:42;100191.75;;;-2.03;83.51
72262;BME280;60173;52.112;8.648;2022-11-20T08:53:09;100195.84;;;-2.00;83.09
72262;BME280;60173;52.112;8.648;2022-11-20T08:55:35;100202.66;;;-2.05;82.21
72262;BME280;60173;52.112;8.648;2022-11-20T08:58:05;100204.53;;;-2.12;82.92
72262;BME280;60173;52.112;8.648;2022-11-20T09:00:33;100210.09;;;-2.13;83.18
72262;BME280;60173;52.112;8.648;2022-11-20T09:03:00;100208.50;;;-1.96;82.68
72262;BME280;60173;52.112;8.648;2022-11-20T09:05:27;100199.44;;;-2.82;83.85
72262;BME280;60173;52.112;8.648;2022-11-20T09:07:57;100195.56;;;-2.54;84.75
72262;BME280;60173;52.112;8.648;2022-11-20T09:10:23;100190.53;;;-2.44;85.23
72262;BME280;60173;52.112;8.648;2022-11-20T09:12:51;100193.91;;;-2.30;85.37
72262;BME280;60173;52.112;8.648;2022-11-20T09:15:18;100200.19;;;-2.24;85.66
72262;BME280;60173;52.112;8.648;2022-11-20T09:17:59;100202.28;;;-2.08;85.40
72262;BME280;60173;52.112;8.648;2022-11-20T09:20:27;100207.88;;;-2.16;84.78
72262;BME280;60173;52.112;8.648;2022-11-20T09:22:54;100206.56;;;-2.07;84.71
72262;BME280;60173;52.112;8.648;2022-11-20T09:25:21;100205.75;;;-2.08;84.58
72262;BME280;60173;52.112;8.648;2022-11-20T09:27:47;100194.44;;;-2.03;85.24
72262;BME280;60173;52.112;8.648;2022-11-20T09:30:14;100196.34;;;-1.92;85.37
72262;BME280;60173;52.112;8.648;2022-11-20T09:32:42;100191.91;;;-1.79;85.54
72262;BME280;60173;52.112;8.648;2022-11-20T09:35:09;100187.84;;;-1.64;85.33
72262;BME280;60173;52.112;8.648;2022-11-20T09:37:35;100184.38;;;-1.64;84.91
72262;BME280;60173;52.112;8.648;2022-11-20T09:40:02;100177.03;;;-1.50;85.06
72262;BME280;60173;52.112;8.648;2022-11-20T09:42:32;100164.75;;;-1.40;84.71
72262;BME280;60173;52.112;8.648;2022-11-20T09:53:51;100150.94;;;-1.18;85.80
72262;BME280;60173;52.112;8.648;2022-11-20T09:56:21;100148.97;;;-1.11;85.94
72262;BME280;60173;52.112;8.648;2022-11-20T09:58:50;100141.31;;;-1.07;86.14
72262;BME280;60173;52.112;8.648;2022-11-20T10:01:31;100132.00;;;-0.86;85.71
72262;BME280;60173;52.112;8.648;2022-11-20T10:06:40;100158.53;;;-0.21;83.99
72262;BME280;60173;52.112;8.648;2022-11-20T10:23:26;100135.16;;;0.10;80.63
72262;BME280;60173;52.112;8.648;2022-11-20T10:26:03;100133.19;;;0.34;80.65
72262;BME280;60173;52.112;8.648;2022-11-20T10:31:40;100138.97;;;0.71;79.46
72262;BME280;60173;52.112;8.648;2022-11-20T10:36:55;100126.56;;;0.65;79.40
72262;BME280;60173;52.112;8.648;2022-11-20T10:40:03;100127.06;;;0.79;78.52
72262;BME280;60173;52.112;8.648;2022-11-20T10:42:44;100127.91;;;0.96;77.98
72262;BME280;60173;52.112;8.648;2022-11-20T10:47:51;100121.72;;;1.12;77.99
72262;BME280;60173;52.112;8.648;2022-11-20T10:50:21;100123.66;;;0.83;77.99
72262;BME280;60173;52.112;8.648;2022-11-20T10:53:31;100127.00;;;0.90;77.69
72262;BME280;60173;52.112;8.648;2022-11-20T10:56:17;100116.53;;;1.23;78.07
72262;BME280;60173;52.112;8.648;2022-11-20T10:58:56;100109.53;;;1.39;77.09
72262;BME280;60173;52.112;8.648;2022-11-20T11:01:26;100096.72;;;1.41;76.90
72262;BME280;60173;52.112;8.648;2022-11-20T11:03:54;100094.41;;;1.27;76.38
72262;BME280;60173;52.112;8.648;2022-11-20T11:06:42;100096.59;;;1.30;76.50
72262;BME280;60173;52.112;8.648;2022-11-20T11:09:30;100099.47;;;1.46;76.30
72262;BME280;60173;52.112;8.648;2022-11-20T11:11:58;100104.34;;;1.49;75.25
72262;BME280;60173;52.112;8.648;2022-11-20T11:14:44;100102.09;;;1.79;75.47
72262;BME280;60173;52.112;8.648;2022-11-20T11:17:46;100095.66;;;1.80;75.52
72262;BME280;60173;52.112;8.648;2022-11-20T11:20:23;100092.72;;;2.04;74.92
72262;BME280;60173;52.112;8.648;2022-11-20T11:22:51;100083.69;;;2.10;74.31
72262;BME280;60173;52.112;8.648;2022-11-20T11:27:55;100063.19;;;2.21;73.15
72262;BME280;60173;52.112;8.648;2022-11-20T11:30:23;100063.09;;;2.38;73.78
72262;BME280;60173;52.112;8.648;2022-11-20T11:32:50;100071.00;;;2.28;71.64
72262;BME280;60173;52.112;8.648;2022-11-20T11:35:28;100065.31;;;2.46;71.80
72262;BME280;60173;52.112;8.648;2022-11-20T11:38:03;100063.16;;;2.48;72.40
72262;BME280;60173;52.112;8.648;2022-11-20T11:40:35;100067.00;;;2.57;72.56
72262;BME280;60173;52.112;8.648;2022-11-20T11:43:06;100060.03;;;2.56;72.19
72262;BME280;60173;52.112;8.648;2022-11-20T11:45:33;100062.97;;;2.55;72.83
72262;BME280;60173;52.112;8.648;2022-11-20T11:48:02;100062.88;;;2.44;72.91
72262;BME280;60173;52.112;8.648;2022-11-20T11:50:29;100069.41;;;2.26;73.33
72262;BME280;60173;52.112;8.648;2022-11-20T11:53:07;100054.59;;;2.46;72.83
72262;BME280;60173;52.112;8.648;2022-11-20T11:55:42;100047.16;;;2.26;73.80
72262;BME280;60173;52.112;8.648;2022-11-20T11:58:16;100054.28;;;2.15;73.39
72262;BME280;60173;52.112;8.648;2022-11-20T12:00:55;100062.31;;;2.15;73.67
72262;BME280;60173;52.112;8.648;2022-11-20T12:03:35;100044.47;;;2.26;72.80
72262;BME280;60173;52.112;8.648;2022-11-20T12:06:06;100035.16;;;2.34;72.94
72262;BME280;60173;52.112;8.648;2022-11-20T12:08:50;100037.25;;;2.26;73.32
72262;BME280;60173;52.112;8.648;2022-11-20T12:11:45;100035.97;;;2.07;71.17
72262;BME280;60173;52.112;8.648;2022-11-20T12:14:33;100035.25;;;1.90;70.72
72262;BME280;60173;52.112;8.648;2022-11-20T12:17:01;100037.25;;;1.77;70.04
72262;BME280;60173;52.112;8.648;2022-11-20T12:19:33;100033.41;;;1.68;70.30
72262;BME280;60173;52.112;8.648;2022-11-20T12:22:22;100037.75;;;1.74;69.62
72262;BME280;60173;52.112;8.648;2022-11-20T12:24:59;100030.00;;;2.00;69.92
72262;BME280;60173;52.112;8.648;2022-11-20T12:27:49;100019.81;;;1.97;70.94
72262;BME280;60173;52.112;8.648;2022-11-20T12:30:20;100018.78;;;2.03;69.87
72262;BME280;60173;52.112;8.648;2022-11-20T12:33:14;100021.34;;;1.93;71.13
72262;BME280;60173;52.112;8.648;2022-11-20T12:36:08;100015.56;;;2.01;69.82
72262;BME280;60173;52.112;8.648;2022-11-20T12:41:22;100011.00;;;2.01;69.16
72262;BME280;60173;52.112;8.648;2022-11-20T12:47:04;100002.03;;;1.91;69.12
72262;BME280;60173;52.112;8.648;2022-11-20T12:49:43;99998.75;;;1.84;69.93
72262;BME280;60173;52.112;8.648;2022-11-20T12:52:24;100003.75;;;1.75;70.05
72262;BME280;60173;52.112;8.648;2022-11-20T12:55:10;99995.97;;;1.73;68.35
72262;BME280;60173;52.112;8.648;2022-11-20T13:00:18;99995.59;;;1.65;68.65
72262;BME280;60173;52.112;8.648;2022-11-20T13:03:06;100004.38;;;1.60;69.31
72262;BME280;60173;52.112;8.648;2022-11-20T13:05:44;100004.19;;;1.67;69.70
72262;BME280;60173;52.112;8.648;2022-11-20T13:08:35;100000.19;;;1.91;69.58
72262;BME280;60173;52.112;8.648;2022-11-20T13:14:08;99986.63;;;2.30;67.46
72262;BME280;60173;52.112;8.648;2022-11-20T13:19:17;99984.09;;;2.18;67.02
72262;BME280;60173;52.112;8.648;2022-11-20T13:21:49;99989.41;;;2.13;67.19
72262;BME280;60173;52.112;8.648;2022-11-20T13:26:46;99973.16;;;1.93;68.10
72262;BME280;60173;52.112;8.648;2022-11-20T13:29:17;99961.13;;;1.68;68.69
72262;BME280;60173;52.112;8.648;2022-11-20T13:31:47;99961.56;;;1.60;69.40
72262;BME280;60173;52.112;8.648;2022-11-20T13:34:24;99965.97;;;1.49;69.77
72262;BME280;60173;52.112;8.648;2022-11-20T13:36:56;99966.84;;;1.33;70.66
72262;BME280;60173;52.112;8.648;2022-11-20T13:39:28;99962.00;;;1.30;71.90
72262;BME280;60173;52.112;8.648;2022-11-20T13:41:57;99958.78;;;1.28;72.39
72262;BME280;60173;52.112;8.648;2022-11-20T13:44:34;99959.59;;;1.28;72.64
72262;BME280;60173;52.112;8.648;2022-11-20T13:47:03;99958.25;;;1.53;71.28
72262;BME280;60173;52.112;8.648;2022-11-20T13:49:33;99948.25;;;1.65;71.05
72262;BME280;60173;52.112;8.648;2022-11-20T13:52:05;99947.22;;;1.71;
72262;BME280;60173;52.112;8.648;2022-11-20T13:54:45;99933.84;;;1.71;70.75
72262;BME280;60173;52.112;8.648;2022-11-20T14:02:22;99919.59;;;1.66;70.17
72262;BME280;60173;52.112;8.648;2022-11-20T14:04:51;99918.94;;;1.53;70.47
72262;BME280;60173;52.112;8.648;2022-11-20T14:07:21;99918.00;;;1.43;70.61
72262;BME280;60173;52.112;8.648;2022-11-20T14:09:55;99920.19;;;1.24;71.57
72262;BME280;60173;52.112;8.648;2022-11-20T14:12:27;99912.94;;;1.19;72.32